Time;durP1;ratioP1;P1;durP2;ratioP2;P2;SDS_P1;SDS_P2;PMS_P1;PMS_P2;Temp;Humidity;BMP_temperature;BMP_pressure;BME280_temperature;BME280_humidity;BME280_pressure;Samples;Min_cycle;Max_cycle;Signal;HPM_P1;HPM_P2
2023/06/06 00:01:41;;;;;;;3.47;1.50;;;;;;;11.08;100.00;98824.41;5139581;28;20399;-67
2023/06/06 00:04:07;;;;;;;1.50;1.40;;;;;;;10.92;100.00;98818.34;5139775;28;20091;-61
2023/06/06 00:06:35;;;;;;;2.50;1.35;;;;;;;10.93;100.00;98812.50;5139570;27;20136;-66
2023/06/06 00:09:03;;;;;;;1.75;1.52;;;;;;;10.79;100.00;98818.59;5140024;28;20051;-62
2023/06/06 00:11:30;;;;;;;1.67;1.55;;;;;;;10.75;100.00;98804.06;5139474;28;20426;-61
2023/06/06 00:13:56;;;;;;;2.38;1.55;;;;;;;10.70;100.00;98795.41;5139559;28;20441;-67
2023/06/06 00:16:23;;;;;;;3.55;1.90;;;;;;;10.64;100.00;98792.19;5139432;28;20050;-61
2023/06/06 00:18:50;;;;;;;5.03;1.95;;;;;;;10.58;100.00;98780.75;5139222;28;20087;-57
2023/06/06 00:21:16;;;;;;;7.32;1.65;;;;;;;10.52;100.00;98776.00;5139277;28;20401;-62
2023/06/06 00:23:45;;;;;;;9.00;1.60;;;;;;;10.54;100.00;98774.47;5139515;28;20078;-64
2023/06/06 00:26:10;;;;;;;8.40;1.85;;;;;;;10.52;100.00;98773.25;5139247;28;20058;-56
2023/06/06 00:28:36;;;;;;;3.28;2.03;;;;;;;10.52;100.00;98771.28;5139372;28;20083;-57
2023/06/06 00:31:02;;;;;;;4.05;2.03;;;;;;;10.49;100.00;98776.72;5139516;28;20290;-61
2023/06/06 00:33:28;;;;;;;3.80;1.90;;;;;;;10.50;100.00;98770.13;5138444;27;20142;-67
2023/06/06 00:35:54;;;;;;;4.28;2.35;;;;;;;10.47;100.00;98774.38;5139292;27;20447;-68
2023/06/06 00:38:20;;;;;;;2.92;2.40;;;;;;;10.49;100.00;98777.53;5139067;28;20138;-67
2023/06/06 00:40:47;;;;;;;2.95;1.83;;;;;;;10.41;100.00;98770.38;5139485;28;20043;-67
2023/06/06 00:43:12;;;;;;;2.58;1.98;;;;;;;10.40;100.00;98779.78;5139205;28;20055;-67
2023/06/06 00:45:38;;;;;;;2.83;2.35;;;;;;;10.36;100.00;98773.44;5139428;28;20074;-67
2023/06/06 00:48:05;;;;;;;5.55;2.28;;;;;;;10.30;100.00;98777.69;5138811;27;20150;-62
2023/06/06 00:50:32;;;;;;;2.10;1.92;;;;;;;10.23;100.00;98781.09;5139068;28;20043;-56
2023/06/06 00:52:58;;;;;;;2.08;1.83;;;;;;;10.21;100.00;98780.69;5139021;28;20051;-65
2023/06/06 00:55:24;;;;;;;4.53;1.98;;;;;;;10.17;100.00;98792.75;5138918;28;20051;-61
2023/06/06 00:57:52;;;;;;;2.10;1.70;;;;;;;10.13;100.00;98793.50;5139025;28;20133;-56
2023/06/06 01:00:19;;;;;;;3.40;2.40;;;;;;;10.14;100.00;98791.53;5138814;28;20047;-62
2023/06/06 01:02:47;;;;;;;3.83;2.13;;;;;;;10.06;100.00;98800.81;5138797;27;20061;-66
2023/06/06 01:05:16;;;;;;;3.22;2.00;;;;;;;10.08;100.00;98801.25;5138563;27;20047;-55
2023/06/06 01:07:43;;;;;;;3.92;2.08;;;;;;;10.08;100.00;98804.75;5138879;27;20484;-60
2023/06/06 01:10:10;;;;;;;1.60;1.48;;;;;;;10.04;100.00;98817.63;5138582;28;20046;-57
2023/06/06 01:12:44;;;;;;;2.97;1.25;;;;;;;9.99;100.00;98804.22;5138995;28;20180;-62
2023/06/06 01:15:16;;;;;;;5.35;1.95;;;;;;;9.88;100.00;98815.03;5138390;28;20062;-66
2023/06/06 01:17:46;;;;;;;1.60;1.50;;;;;;;9.87;100.00;98816.22;5138340;28;20051;-67
2023/06/06 01:20:13;;;;;;;2.50;1.95;;;;;;;9.85;100.00;98828.69;5138414;28;20054;-67
2023/06/06 01:22:43;;;;;;;2.03;1.48;;;;;;;9.83;100.00;98833.72;5138231;28;20058;-57
2023/06/06 01:25:10;;;;;;;3.78;1.55;;;;;;;9.78;100.00;98837.56;5138653;28;20051;-65
2023/06/06 01:27:36;;;;;;;1.83;1.30;;;;;;;9.77;100.00;98844.22;5138307;28;20130;-67
2023/06/06 01:30:03;;;;;;;4.93;1.70;;;;;;;9.71;100.00;98853.09;5138496;28;20427;-62
2023/06/06 01:32:36;;;;;;;2.47;1.52;;;;;;;9.71;100.00;98856.63;5138092;28;20133;-58
2023/06/06 01:35:08;;;;;;;1.95;1.60;;;;;;;9.69;100.00;98871.81;5138681;28;20051;-61
2023/06/06 01:37:45;;;;;;;4.10;1.42;;;;;;;9.64;100.00;98870.97;5137938;27;20055;-65
2023/06/06 01:40:13;;;;;;;6.60;1.38;;;;;;;9.63;100.00;98869.41;5138298;28;20066;-57
2023/06/06 01:42:44;;;;;;;2.15;1.70;;;;;;;9.58;100.00;98883.38;5138186;28;20508;-58
2023/06/06 01:45:12;;;;;;;3.50;1.50;;;;;;;9.54;100.00;98885.28;5137001;27;20108;-67
2023/06/06 01:47:38;;;;;;;2.85;1.67;;;;;;;9.59;100.00;98901.38;5138398;28;20484;-68
2023/06/06 01:50:07;;;;;;;3.78;1.70;;;;;;;9.56;100.00;98904.06;5138074;28;20047;-61
2023/06/06 01:52:34;;;;;;;4.85;1.95;;;;;;;9.51;100.00;98907.91;5138347;28;20088;-64
2023/06/06 01:55:01;;;;;;;2.88;1.50;;;;;;;9.51;100.00;98931.75;5137829;28;20047;-64
2023/06/06 01:57:27;;;;;;;4.22;1.80;;;;;;;9.38;100.00;98939.31;5138199;27;20062;-67
2023/06/06 01:59:54;;;;;;;1.88;1.70;;;;;;;9.34;100.00;98947.44;5137752;28;20130;-61
2023/06/06 02:02:20;;;;;;;2.85;1.50;;;;;;;9.31;100.00;98959.13;5138093;28;20051;-67
2023/06/06 02:04:47;;;;;;;2.88;1.73;;;;;;;9.23;100.00;98987.50;5137614;28;20139;-66
2023/06/06 02:07:15;;;;;;;4.88;1.85;;;;;;;9.31;100.00;99007.56;5138152;27;20119;-55
2023/06/06 02:09:42;;;;;;;8.02;1.70;;;;;;;9.43;100.00;99013.69;5137804;28;20319;-58
2023/06/06 02:12:10;;;;;;;1.65;1.55;;;;;;;9.48;100.00;98998.91;5137723;28;20058;-58
2023/06/06 02:14:36;;;;;;;2.58;1.40;;;;;;;9.48;100.00;98993.44;5137799;28;20050;-64
2023/06/06 02:17:03;;;;;;;4.13;1.90;;;;;;;9.53;100.00;99004.13;5137587;28;20058;-67
2023/06/06 02:19:30;;;;;;;3.90;1.50;;;;;;;9.59;100.00;99012.81;5137855;28;20076;-62
2023/06/06 02:21:56;;;;;;;4.78;1.77;;;;;;;9.71;100.00;99004.44;5137380;28;20420;-58
2023/06/06 02:24:24;;;;;;;5.70;1.50;;;;;;;10.19;100.00;98971.22;5137777;28;20058;-58
2023/06/06 02:26:52;;;;;;;4.88;1.70;;;;;;;10.58;100.00;98873.19;5137375;28;20401;-62
2023/06/06 02:29:19;;;;;;;3.45;2.00;;;;;;;11.05;100.00;98814.19;5137783;27;20073;-58
2023/06/06 02:31:45;;;;;;;1.60;1.50;;;;;;;11.25;100.00;98812.81;5137620;27;20054;-65
2023/06/06 02:34:11;;;;;;;5.85;1.50;;;;;;;11.71;100.00;98828.09;5137418;28;20047;-65
2023/06/06 02:36:38;;;;;;;3.65;1.67;;;;;;;11.97;100.00;98882.09;5137237;27;20100;-68
2023/06/06 02:39:04;;;;;;;1.75;1.60;;;;;;;12.28;100.00;98910.97;5137399;28;20130;-65
2023/06/06 02:41:30;;;;;;;3.63;1.73;;;;;;;12.49;100.00;98957.06;5137842;28;20138;-64
2023/06/06 02:43:56;;;;;;;6.05;1.90;;;;;;;12.77;100.00;99005.19;5138291;28;20062;-63
2023/06/06 02:46:23;;;;;;;3.47;1.70;;;;;;;13.03;100.00;99032.47;5138992;27;20313;-59
2023/06/06 02:48:49;;;;;;;3.88;1.60;;;;;;;13.35;100.00;99086.94;5137319;28;20058;-63
2023/06/06 02:51:16;;;;;;;3.00;1.95;;;;;;;13.68;100.00;99137.47;5137119;28;20080;-68
2023/06/06 02:53:42;;;;;;;3.22;1.60;;;;;;;13.88;100.00;99175.34;5136954;28;20051;-58
2023/06/06 02:56:08;;;;;;;3.25;1.40;;;;;;;14.13;100.00;99203.03;5137470;27;20408;-68
2023/06/06 02:58:34;;;;;;;4.15;1.60;;;;;;;14.45;100.00;99240.94;5140443;28;20043;-67
2023/06/06 03:01:03;;;;;;;2.20;1.70;;;;;;;14.66;100.00;99273.38;5140600;28;20395;-63
2023/06/06 03:03:30;;;;;;;2.35;1.50;;;;;;;14.78;100.00;99283.25;5140519;28;20051;-58
2023/06/06 03:05:56;;;;;;;2.00;1.58;;;;;;;15.13;100.00;99325.91;5140594;27;20167;-63
2023/06/06 03:08:23;;;;;;;2.72;1.90;;;;;;;15.40;100.00;99329.13;5140551;28;20424;-69
2023/06/06 03:10:51;;;;;;;4.63;1.63;;;;;;;15.65;100.00;99348.47;5140644;28;20130;-58
2023/06/06 03:13:17;;;;;;;2.13;1.50;;;;;;;15.82;100.00;99389.19;5140734;28;20131;-63
2023/06/06 03:15:44;;;;;;;1.70;1.40;;;;;;;15.79;100.00;99384.44;5140519;27;20051;-58
2023/06/06 03:18:11;;;;;;;6.30;2.22;;;;;;;16.08;100.00;99399.06;5140718;28;20047;-67
2023/06/06 03:20:40;;;;;;;4.35;1.40;;;;;;;16.40;100.00;99417.59;5140325;28;20047;-63
2023/06/06 03:23:06;;;;;;;2.70;1.95;;;;;;;16.41;100.00;99431.03;5140664;28;20058;-67
2023/06/06 03:25:33;;;;;;;1.90;1.70;;;;;;;16.97;100.00;99458.22;5140213;28;20063;-63
2023/06/06 03:27:59;;;;;;;3.22;1.70;;;;;;;16.90;100.00;99475.66;5140360;28;20047;-62
2023/06/06 03:30:25;;;;;;;5.68;2.00;;;;;;;17.36;100.00;99472.72;5140407;28;20051;-56
2023/06/06 03:32:51;;;;;;;3.55;1.48;;;;;;;17.06;100.00;99498.16;5140064;28;20407;-59
2023/06/06 03:35:18;;;;;;;2.92;1.83;;;;;;;17.77;100.00;99527.56;5140052;27;20127;-58
2023/06/06 03:37:44;;;;;;;3.92;1.80;;;;;;;18.24;100.00;99527.25;5140051;28;20325;-67
2023/06/06 03:40:12;;;;;;;4.53;2.13;;;;;;;18.55;100.00;99542.06;5140148;28;20424;-65
2023/06/06 03:42:37;;;;;;;4.40;1.90;;;;;;;17.94;100.00;99538.97;5140080;28;20136;-67
2023/06/06 03:45:04;;;;;;;2.67;2.25;;;;;;;18.76;97.87;99553.03;5140165;28;20051;-68
2023/06/06 03:47:30;;;;;;;4.20;1.83;;;;;;;18.97;93.41;99557.59;5139841;28;20474;-59
2023/06/06 03:49:56;;;;;;;2.65;1.60;;;;;;;18.69;91.90;99566.16;5140246;27;20051;-60
2023/06/06 03:52:23;;;;;;;3.65;1.75;;;;;;;19.17;88.63;99563.34;5139793;28;20086;-56
2023/06/06 03:54:49;;;;;;;2.67;1.70;;;;;;;19.05;90.14;99563.84;5140169;28;20101;-59
2023/06/06 03:57:16;;;;;;;3.88;1.73;;;;;;;18.33;90.56;99569.22;5139999;27;20043;-59
2023/06/06 03:59:42;;;;;;;3.50;1.73;;;;;;;19.05;88.36;99564.66;5139571;28;20432;-60
2023/06/06 04:02:08;;;;;;;1.75;1.40;;;;;;;19.26;89.10;99565.66;5139931;28;20054;-59
2023/06/06 04:04:34;;;;;;;5.30;1.75;;;;;;;19.47;85.83;99570.16;5139790;28;20088;-57
2023/06/06 04:07:00;;;;;;;3.28;1.70;;;;;;;19.26;86.94;99560.88;5139848;27;20047;-58
2023/06/06 04:09:25;;;;;;;1.70;1.60;;;;;;;19.32;85.74;99568.75;5138414;27;20057;-63
2023/06/06 04:11:52;;;;;;;5.63;1.80;;;;;;;19.44;85.02;99568.22;5139772;27;20051;-68
2023/06/06 04:14:18;;;;;;;2.63;1.48;;;;;;;19.77;82.08;99568.63;5139518;28;20114;-63
2023/06/06 04:16:44;;;;;;;1.88;1.58;;;;;;;19.95;80.40;99577.53;5139865;27;20063;-67
2023/06/06 04:19:10;;;;;;;3.58;1.80;;;;;;;19.68;78.70;99581.03;5139753;28;20413;-69
2023/06/06 04:21:36;;;;;;;3.60;1.83;;;;;;;20.00;80.59;99579.06;5139812;28;20047;-59
2023/06/06 04:24:02;;;;;;;3.65;1.95;;;;;;;20.31;80.14;99583.38;5139399;28;20055;-63
2023/06/06 04:26:31;;;;;;;1.95;1.55;;;;;;;20.78;74.73;99591.03;5139682;28;20466;-68
2023/06/06 04:28:59;;;;;;;2.10;1.70;;;;;;;20.75;72.66;99597.44;5139512;28;20047;-59
2023/06/06 04:31:29;;;;;;;1.75;1.45;;;;;;;20.61;76.49;99588.09;5139163;28;20332;-67
2023/06/06 04:33:55;;;;;;;1.50;1.40;;;;;;;21.14;71.62;99583.59;5139518;28;20320;-70
2023/06/06 04:36:21;;;;;;;1.52;1.42;;;;;;;20.37;72.62;99584.47;5139111;27;20057;-63
2023/06/06 04:38:49;;;;;;;3.47;1.73;;;;;;;20.25;74.58;99589.81;5139312;28;20062;-66
2023/06/06 04:41:15;;;;;;;1.60;1.50;;;;;;;20.74;75.57;99585.50;5139190;28;20469;-69
2023/06/06 04:43:42;;;;;;;1.58;1.35;;;;;;;21.52;68.36;99597.25;5140895;27;20079;-58
2023/06/06 04:46:09;;;;;;;2.35;1.83;;;;;;;21.66;69.50;99592.59;5140450;28;20082;-60
2023/06/06 04:48:35;;;;;;;1.15;1.05;;;;;;;21.76;65.75;99597.97;5139505;27;20488;-65
2023/06/06 04:51:01;;;;;;;3.80;1.73;;;;;;;22.56;64.97;99595.03;5139158;28;20181;-61
2023/06/06 04:53:27;;;;;;;3.88;1.40;;;;;;;22.75;62.50;99596.91;5139302;28;20055;-65
2023/06/06 04:55:53;;;;;;;3.28;1.20;;;;;;;20.61;66.48;99587.31;5138705;28;20090;-68
2023/06/06 04:58:21;;;;;;;0.95;0.90;;;;;;;22.12;64.54;99593.59;5138738;28;20054;-69
2023/06/06 05:00:47;;;;;;;2.40;1.30;;;;;;;22.35;61.47;99601.88;5139010;28;20079;-65
2023/06/06 05:03:18;;;;;;;2.90;1.40;;;;;;;22.88;61.35;99599.00;5138614;28;20396;-70
2023/06/06 05:05:47;;;;;;;1.50;1.40;;;;;;;21.54;61.71;99596.81;5139039;27;20192;-68
2023/06/06 05:08:13;;;;;;;3.03;1.42;;;;;;;22.52;60.37;99597.09;5138420;28;20054;-58
2023/06/06 05:10:39;;;;;;;4.35;1.10;;;;;;;21.96;60.10;99597.13;5138539;28;20055;-62
2023/06/06 05:13:05;;;;;;;1.30;1.17;;;;;;;22.30;60.59;99597.59;5138278;28;20141;-57
2023/06/06 05:15:31;;;;;;;1.35;1.23;;;;;;;22.11;59.68;99597.63;5138617;28;20412;-53
2023/06/06 05:17:58;;;;;;;1.00;0.95;;;;;;;21.49;61.36;99600.91;5138003;28;20066;-57
2023/06/06 05:20:24;;;;;;;2.60;1.15;;;;;;;21.36;63.74;99600.75;5138118;27;20047;-60
2023/06/06 05:22:50;;;;;;;0.90;0.90;;;;;;;21.32;63.42;99599.19;5137936;28;20058;-53
2023/06/06 05:25:17;;;;;;;1.15;1.02;;;;;;;23.25;60.28;99598.44;5138241;28;20047;-54
2023/06/06 05:27:43;;;;;;;1.73;1.50;;;;;;;22.56;59.47;99614.56;5138169;28;20104;-59
2023/06/06 05:30:10;;;;;;;1.50;1.40;;;;;;;21.55;61.36;99599.16;5137893;28;20043;-60
2023/06/06 05:32:36;;;;;;;0.95;0.95;;;;;;;21.69;62.02;99606.47;5138286;27;20047;-63
2023/06/06 05:35:03;;;;;;;3.08;1.38;;;;;;;22.97;59.22;99607.59;5137679;28;20173;-60
2023/06/06 05:37:29;;;;;;;1.30;1.00;;;;;;;21.87;59.91;99608.91;5138232;27;20050;-58
2023/06/06 05:39:55;;;;;;;3.53;0.93;;;;;;;22.73;59.98;99606.97;5137839;27;20051;-58
2023/06/06 05:42:22;;;;;;;3.10;1.10;;;;;;;20.81;62.58;99602.09;5138152;28;20047;-61
2023/06/06 05:44:50;;;;;;;0.90;0.90;;;;;;;20.69;63.79;99611.03;5137555;28;20051;-59
2023/06/06 05:47:16;;;;;;;1.92;1.20;;;;;;;20.16;64.74;99612.63;5138109;28;20077;-57
2023/06/06 05:49:42;;;;;;;1.30;1.20;;;;;;;20.77;64.07;99608.94;5137377;28;20063;-59
2023/06/06 05:52:08;;;;;;;2.75;1.73;;;;;;;21.82;62.74;99606.59;5137595;28;20324;-60
2023/06/06 05:54:35;;;;;;;1.60;1.25;;;;;;;22.33;63.08;99612.72;5137468;28;20102;-63
2023/06/06 05:57:01;;;;;;;1.95;1.77;;;;;;;21.82;62.60;99609.41;5137612;27;20058;-56
2023/06/06 05:59:27;;;;;;;5.00;1.70;;;;;;;22.46;62.49;99598.81;5137562;27;20063;-60
2023/06/06 06:01:53;;;;;;;2.83;1.58;;;;;;;22.38;61.84;99614.97;5137387;28;20483;-62
2023/06/06 06:04:19;;;;;;;3.00;1.23;;;;;;;22.49;61.59;99614.72;5137425;28;20405;-60
2023/06/06 06:06:46;;;;;;;3.50;1.75;;;;;;;23.48;58.47;99608.63;5137165;27;20051;-53
2023/06/06 06:09:12;;;;;;;2.38;1.70;;;;;;;22.86;60.81;99607.84;5137555;28;20058;-58
2023/06/06 06:11:40;;;;;;;5.18;1.70;;;;;;;23.57;59.81;99607.97;5137383;28;20336;-62
2023/06/06 06:14:06;;;;;;;3.40;1.48;;;;;;;23.78;57.30;99619.81;5137515;28;20058;-59
2023/06/06 06:16:32;;;;;;;4.53;1.60;;;;;;;24.00;56.94;99608.78;5137158;28;20138;-54
2023/06/06 06:18:58;;;;;;;3.92;1.50;;;;;;;24.40;55.46;99609.16;5137564;27;20047;-53
2023/06/06 06:21:25;;;;;;;3.42;1.40;;;;;;;24.70;54.62;99624.63;5137119;28;20043;-59
2023/06/06 06:23:51;;;;;;;2.70;1.38;;;;;;;24.06;54.77;99618.19;5137145;28;20050;-57
2023/06/06 06:26:17;;;;;;;3.45;1.75;;;;;;;22.81;56.73;99624.34;5136956;28;20408;-59
2023/06/06 06:28:44;;;;;;;1.50;1.40;;;;;;;21.42;58.84;99609.41;5137024;28;20058;-58
2023/06/06 06:31:10;;;;;;;2.65;1.45;;;;;;;23.65;56.81;99602.97;5136329;27;20137;-55
2023/06/06 06:33:36;;;;;;;2.30;1.35;;;;;;;23.84;54.97;99618.06;5137016;28;20079;-58
2023/06/06 06:36:02;;;;;;;3.75;1.35;;;;;;;24.03;55.80;99610.69;5137009;27;20047;-54
2023/06/06 06:38:28;;;;;;;5.53;1.65;;;;;;;23.99;54.71;99610.78;5136713;28;20053;-62
2023/06/06 06:40:54;;;;;;;1.70;1.50;;;;;;;24.95;54.63;99606.97;5136822;27;20047;-60
2023/06/06 06:43:20;;;;;;;3.78;1.30;;;;;;;25.56;52.77;99613.31;5136217;28;20101;-56
2023/06/06 06:45:47;;;;;;;9.60;1.90;;;;;;;25.71;53.08;99617.13;5136970;27;20120;-53
2023/06/06 06:48:12;;;;;;;1.77;1.42;;;;;;;25.41;52.48;99612.25;5136550;28;20336;-57
2023/06/06 06:50:38;;;;;;;5.63;1.73;;;;;;;25.94;52.60;99617.94;5136676;28;20058;-55
2023/06/06 06:53:07;;;;;;;5.80;1.63;;;;;;;26.01;52.80;99612.81;5136669;28;20057;-57
2023/06/06 06:55:34;;;;;;;1.58;1.02;;;;;;;25.58;53.70;99600.34;5136925;28;20128;-60
2023/06/06 06:58:01;;;;;;;2.13;1.70;;;;;;;26.49;52.09;99618.22;5136471;28;20086;-51
2023/06/06 07:00:27;;;;;;;4.25;1.52;;;;;;;25.51;52.83;99609.03;5136195;28;20062;-60
2023/06/06 07:02:56;;;;;;;2.20;1.30;;;;;;;26.25;50.83;99610.28;5136718;28;20047;-60
2023/06/06 07:05:23;;;;;;;1.58;1.35;;;;;;;26.15;50.90;99619.91;5136244;27;20047;-56
2023/06/06 07:07:52;;;;;;;1.45;1.35;;;;;;;26.98;50.31;99614.59;5136597;27;20051;-56
2023/06/06 07:10:19;;;;;;;2.42;1.42;;;;;;;27.02;50.71;99601.16;5136098;28;20051;-57
2023/06/06 07:12:49;;;;;;;6.90;1.60;;;;;;;27.61;50.27;99601.81;5136919;28;20138;-63
2023/06/06 07:15:15;;;;;;;3.35;1.30;;;;;;;28.13;49.33;99605.50;5136081;27;20057;-55
2023/06/06 07:17:46;;;;;;;2.53;1.20;;;;;;;25.99;51.54;99609.72;5136315;28;20051;-57
2023/06/06 07:20:12;;;;;;;1.20;1.10;;;;;;;25.23;52.34;99602.44;5136238;28;20069;-62
2023/06/06 07:22:38;;;;;;;2.25;1.17;;;;;;;25.27;52.52;99594.66;5137417;28;20057;-66
2023/06/06 07:25:06;;;;;;;2.58;1.40;;;;;;;26.18;51.71;99599.34;5137916;28;20051;-61
2023/06/06 07:27:35;;;;;;;2.28;1.42;;;;;;;27.20;50.18;99598.41;5135884;28;20530;-62
2023/06/06 07:30:01;;;;;;;2.17;1.50;;;;;;;25.59;50.92;99601.13;5136377;28;20097;-59
2023/06/06 07:32:27;;;;;;;4.05;1.42;;;;;;;26.83;49.73;99602.41;5136041;28;20051;-59
2023/06/06 07:34:53;;;;;;;2.75;1.58;;;;;;;27.14;48.30;99600.28;5136195;28;20193;-59
2023/06/06 07:37:20;;;;;;;5.65;1.60;;;;;;;27.56;49.34;99596.84;5135597;27;20135;-58
2023/06/06 07:39:46;;;;;;;1.45;1.30;;;;;;;27.48;48.67;99598.38;5136224;27;20077;-64
2023/06/06 07:42:12;;;;;;;4.18;1.20;;;;;;;27.42;49.32;99600.28;5135661;27;20108;-60
2023/06/06 07:44:38;;;;;;;2.45;1.35;;;;;;;26.94;50.07;99602.72;5139488;28;20055;-62
2023/06/06 07:47:04;;;;;;;2.85;1.23;;;;;;;27.97;48.29;99599.44;5139622;28;20051;-59
2023/06/06 07:49:30;;;;;;;2.40;1.42;;;;;;;28.71;47.99;99599.94;5139400;28;20078;-54
2023/06/06 07:51:56;;;;;;;3.70;1.35;;;;;;;28.13;47.89;99602.69;5139477;28;20141;-59
2023/06/06 07:54:23;;;;;;;1.73;1.23;;;;;;;28.42;47.66;99597.72;5139226;28;20308;-57
2023/06/06 07:56:49;;;;;;;3.42;1.20;;;;;;;26.82;49.75;99595.97;5139439;28;20047;-55
2023/06/06 07:59:15;;;;;;;1.40;1.30;;;;;;;28.16;48.02;99589.69;5139252;27;20155;-53
2023/06/06 08:01:41;;;;;;;1.48;1.25;;;;;;;28.64;47.48;99591.81;5139281;27;20047;-52
2023/06/06 08:04:07;;;;;;;1.73;1.15;;;;;;;28.80;47.74;99589.38;5139173;28;20440;-58
2023/06/06 08:06:37;;;;;;;2.92;1.20;;;;;;;28.83;46.86;99582.78;5139455;27;20324;-59
2023/06/06 08:09:05;;;;;;;3.20;1.40;;;;;;;28.77;47.53;99583.91;5138908;28;20478;-58
2023/06/06 08:11:32;;;;;;;2.05;1.35;;;;;;;28.21;47.46;99583.38;5139411;27;20070;-54
2023/06/06 08:13:58;;;;;;;2.97;1.45;;;;;;;27.15;48.18;99590.56;5138974;27;20401;-58
2023/06/06 08:16:24;;;;;;;1.70;1.60;;;;;;;27.46;48.69;99586.84;5138671;28;20051;-59
2023/06/06 08:18:50;;;;;;;3.78;1.48;;;;;;;28.46;47.56;99589.88;5139281;27;20057;-62
2023/06/06 08:21:16;;;;;;;3.03;1.40;;;;;;;27.97;47.38;99579.72;5138594;28;20058;-62
2023/06/06 08:23:42;;;;;;;5.50;4.03;;;;;;;28.76;47.51;99576.72;5138776;28;20099;-60
2023/06/06 08:26:08;;;;;;;1.83;1.25;;;;;;;26.56;48.70;99572.16;5138489;28;20141;-60
2023/06/06 08:28:34;;;;;;;1.50;1.33;;;;;;;27.86;48.34;99575.38;5139088;28;20051;-58
2023/06/06 08:31:01;;;;;;;41.80;4.18;;;;;;;28.14;48.00;99566.81;5138821;28;20047;-62
2023/06/06 08:33:27;;;;;;;3.05;1.55;;;;;;;28.63;47.01;99568.50;5138925;28;20150;-64
2023/06/06 08:35:53;;;;;;;6.30;1.52;;;;;;;29.11;46.77;99571.31;5138450;27;20138;-61
2023/06/06 08:38:18;;;;;;;4.22;1.58;;;;;;;29.32;46.57;99563.75;5138879;28;20051;-58
2023/06/06 08:40:45;;;;;;;1.85;1.33;;;;;;;28.75;46.60;99569.50;5138548;28;20130;-55
2023/06/06 08:43:12;;;;;;;1.80;1.38;;;;;;;29.19;45.77;99560.41;5138824;27;20059;-57
2023/06/06 08:45:43;;;;;;;1.63;1.30;;;;;;;28.98;46.60;99553.81;5138935;28;20175;-56
2023/06/06 08:48:10;;;;;;;3.10;1.45;;;;;;;26.65;48.95;99560.94;5138605;28;20059;-54
2023/06/06 08:50:38;;;;;;;2.75;1.83;;;;;;;27.85;48.34;99548.44;5138665;28;20050;-58
2023/06/06 08:53:05;;;;;;;3.10;1.50;;;;;;;28.66;46.79;99555.44;5138470;28;20047;-63
2023/06/06 08:55:34;;;;;;;2.55;1.50;;;;;;;28.63;47.11;99548.75;5138384;27;20310;-61
2023/06/06 08:58:01;;;;;;;1.80;1.40;;;;;;;28.64;47.18;99549.50;5138411;28;20062;-57
2023/06/06 09:00:27;;;;;;;5.07;1.40;;;;;;;28.24;46.97;99542.19;5138543;28;20424;-63
2023/06/06 09:02:54;;;;;;;2.13;1.40;;;;;;;27.98;47.07;99545.41;5138518;28;20047;-62
2023/06/06 09:05:21;;;;;;;2.05;1.60;;;;;;;28.94;46.10;99548.34;5138702;27;20115;-63
2023/06/06 09:07:48;;;;;;;4.72;1.50;;;;;;;28.95;46.02;99552.72;5138450;27;20158;-58
2023/06/06 09:10:15;;;;;;;6.03;1.40;;;;;;;29.29;45.83;99540.09;5138380;28;20416;-58
2023/06/06 09:12:41;;;;;;;2.95;1.80;;;;;;;27.94;46.56;99533.53;5138558;27;20141;-62
2023/06/06 09:15:09;;;;;;;1.90;1.35;;;;;;;28.76;45.86;99537.22;5138264;28;20082;-57
2023/06/06 09:17:35;;;;;;;3.33;1.50;;;;;;;28.07;45.82;99534.13;5138466;28;20047;-56
2023/06/06 09:20:06;;;;;;;7.18;1.83;;;;;;;27.83;46.48;99538.91;5138236;28;20055;-55
2023/06/06 09:22:37;;;;;;;2.40;1.40;;;;;;;28.06;46.24;99538.19;5138253;28;20058;-62
2023/06/06 09:25:04;;;;;;;4.25;1.60;;;;;;;28.54;46.18;99541.09;5138004;28;20138;-62
2023/06/06 09:27:31;;;;;;;2.90;1.40;;;;;;;26.73;48.20;99536.91;5138357;28;20058;-53
2023/06/06 09:29:57;;;;;;;2.28;1.33;;;;;;;27.88;47.35;99538.25;5137845;28;20051;-57
2023/06/06 09:32:27;;;;;;;2.20;1.52;;;;;;;27.20;47.87;99536.50;5138435;28;20051;-62
2023/06/06 09:34:54;;;;;;;2.55;1.70;;;;;;;27.97;47.39;99526.19;5138154;28;20047;-58
2023/06/06 09:37:22;;;;;;;2.30;1.27;;;;;;;29.02;45.91;99529.03;5137853;27;20078;-62
2023/06/06 09:40:10;;;;;;;3.72;1.30;;;;;;;27.37;46.34;99527.72;5138151;27;20115;-58
2023/06/06 09:42:37;;;;;;;1.92;1.83;;;;;;;27.88;46.41;99521.34;5137722;28;20476;-56
2023/06/06 09:45:11;;;;;;;5.82;1.50;;;;;;;27.71;46.73;99522.94;5137982;27;20389;-59
2023/06/06 09:47:39;;;;;;;2.53;1.65;;;;;;;27.50;46.17;99525.50;5137817;28;20150;-61
2023/06/06 09:50:06;;;;;;;1.83;1.40;;;;;;;27.27;47.04;99524.13;5138096;28;20054;-62
2023/06/06 09:52:32;;;;;;;3.75;1.67;;;;;;;27.55;46.50;99522.03;5137582;28;20061;-53
2023/06/06 09:54:59;;;;;;;3.08;1.67;;;;;;;27.43;46.81;99515.34;5137796;28;20065;-56
2023/06/06 09:57:26;;;;;;;4.47;1.40;;;;;;;26.86;47.09;99522.72;5137481;28;20426;-57
2023/06/06 09:59:53;;;;;;;4.38;1.80;;;;;;;27.21;47.08;99512.72;5137680;28;20138;-59
2023/06/06 10:02:22;;;;;;;2.30;1.60;;;;;;;27.17;46.53;99505.69;5137966;27;20047;-58
2023/06/06 10:04:49;;;;;;;12.13;7.78;;;;;;;27.57;46.70;99504.69;5137683;28;20332;-55
2023/06/06 10:07:16;;;;;;;1.70;1.60;;;;;;;27.41;47.29;99498.13;5136802;27;20357;-56
2023/06/06 10:09:43;;;;;;;5.55;1.70;;;;;;;27.51;47.17;99492.50;5137378;28;20047;-54
2023/06/06 10:12:12;;;;;;;1.58;1.40;;;;;;;28.37;45.96;99498.41;5137753;28;20053;-63
2023/06/06 10:14:39;;;;;;;6.13;1.70;;;;;;;28.69;45.47;99498.06;5137337;28;20339;-55
2023/06/06 10:17:07;;;;;;;1.60;1.50;;;;;;;28.06;45.20;99501.56;5137622;28;20054;-54
2023/06/06 10:19:33;;;;;;;2.47;1.98;;;;;;;27.42;45.89;99505.34;5137151;28;20093;-59
2023/06/06 10:22:00;;;;;;;1.98;1.70;;;;;;;27.39;45.81;99499.84;5137043;28;20078;-56
2023/06/06 10:24:26;;;;;;;1.77;1.60;;;;;;;27.46;45.77;99485.47;5137357;28;20058;-60
2023/06/06 10:27:00;;;;;;;3.28;1.80;;;;;;;26.92;46.42;99493.47;5137267;28;20132;-54
2023/06/06 10:29:32;;;;;;;3.50;1.90;;;;;;;27.54;46.14;99489.50;5137336;28;20089;-55
2023/06/06 10:32:04;;;;;;;3.47;1.40;;;;;;;27.10;46.30;99484.25;5137196;28;20154;-55
2023/06/06 10:34:37;;;;;;;3.53;1.43;;;;;;;26.67;46.86;99497.38;5137001;28;20151;-51
2023/06/06 10:37:17;;;;;;;2.65;1.80;;;;;;;26.99;46.80;99503.63;5136729;27;20360;-58
2023/06/06 10:39:45;;;;;;;4.45;1.52;;;;;;;27.28;46.27;99491.13;5137083;28;20145;-53
2023/06/06 10:42:15;;;;;;;2.15;1.55;;;;;;;27.27;46.43;99486.75;5136473;28;20401;-50
2023/06/06 10:44:53;;;;;;;3.72;1.80;;;;;;;26.48;46.63;99492.97;5136896;27;20077;-57
2023/06/06 10:47:32;;;;;;;2.17;1.73;;;;;;;26.23;48.00;99491.19;5136826;28;20187;-56
2023/06/06 10:50:21;;;;;;;1.90;1.67;;;;;;;25.90;47.36;99488.09;5136331;27;20055;-52
2023/06/06 10:52:49;;;;;;;3.15;1.75;;;;;;;25.88;47.61;99479.34;5136808;28;20051;-59
2023/06/06 10:55:16;;;;;;;2.60;1.73;;;;;;;25.67;47.96;99481.72;5136566;27;20058;-55
2023/06/06 10:57:51;;;;;;;1.95;1.70;;;;;;;24.48;49.01;99467.59;5136951;28;20043;-56
2023/06/06 11:00:17;;;;;;;3.15;1.80;;;;;;;24.99;49.27;99469.41;5136728;27;20062;-54
2023/06/06 11:02:45;;;;;;;2.28;2.08;;;;;;;24.81;48.86;99470.84;5136765;28;20126;-57
2023/06/06 11:05:11;;;;;;;3.05;2.35;;;;;;;25.11;49.19;99460.97;5136475;28;20043;-58
2023/06/06 11:07:38;;;;;;;4.97;2.00;;;;;;;24.80;49.50;99462.91;5136861;27;20058;-56
2023/06/06 11:10:04;;;;;;;6.25;2.13;;;;;;;24.42;51.21;99456.19;5136633;28;20051;-56
2023/06/06 11:12:30;;;;;;;3.05;1.90;;;;;;;24.85;50.30;99463.06;5136125;28;20074;-57
2023/06/06 11:14:58;;;;;;;2.13;1.60;;;;;;;24.91;50.44;99454.09;5136633;28;20058;-58
2023/06/06 11:17:27;;;;;;;1.25;1.15;;;;;;;23.98;50.40;99448.81;5136594;27;20411;-56
2023/06/06 11:19:55;;;;;;;5.65;1.48;;;;;;;23.63;50.43;99446.69;5140673;28;20137;-54
2023/06/06 11:22:23;;;;;;;4.97;1.60;;;;;;;24.03;51.03;99456.69;5140009;28;20047;-53
2023/06/06 11:24:50;;;;;;;2.42;1.52;;;;;;;23.85;51.48;99452.41;5140347;28;20102;-58
2023/06/06 11:27:16;;;;;;;3.13;2.47;;;;;;;24.45;51.54;99445.28;5139595;28;20143;-53
2023/06/06 11:29:42;;;;;;;4.97;1.67;;;;;;;24.56;50.95;99440.13;5139885;28;20157;-59
2023/06/06 11:32:13;;;;;;;1.60;1.50;;;;;;;24.51;52.19;99446.28;5140039;28;20146;-60